Chisholm Hibbing Airport
KHIB : now visible

Airfield :











YOU CAN JOIN US ON...

 
LOGIN :

Register | Disclaimer

   EN    FR    IT 

 









Legend :    VFR   Marginal VFR   IFR   Intensive IFR   Very Intensive IFR
Visi :
Ceiling :
>= 8 km
>= 3000ft
5 to 8 km
1000 to 3000 ft
1500m to 5 km
500 to 1000 ft
800 to 1500m
200 to 500 ft
< 800m
< 200 ft
Symbols :   Thunderstorms  Fog  Heavy snow  Heavy precipitations  Wind > 20 kt






- Airport Elevation : 1354 ft
- IATA code : HIB


KHIB - Chisholm Hibbing

CURRENT METAR :
  • 180639Z AUTO 32010KT 8SM -SN OVC014 M09/M12 A2975 RMK AO2 P0000 T10941117

EXPIRED METARs :
  • 180632Z AUTO 32013G18KT 2SM -SN OVC014 M09/M12 A2975 RMK AO2 P0000 T10891117
  • 180612Z AUTO 32007KT 1 1/4SM -SN BR OVC016 M09/M11 A2974 RMK AO2 P0000 T10891106
  • 180553Z AUTO 33006KT 1 1/2SM -SN BR OVC014 M08/M11 A2974 RMK AO2 SNB27 SLP100 P0000 60000 T10831106 11083 21089 410671089 53000
  • 180540Z AUTO 32006KT 2 1/2SM -SN BR OVC014 M08/M11 A2974 RMK AO2 VIS 1 3/4V5 SNB27 P0000 T10831106
  • 180458Z AUTO 32004KT 10SM SCT010 OVC020 M08/M10 A2974 RMK AO2 T10831100
  • 180402Z AUTO 34005KT 8SM OVC005 M08/M09 A2974 RMK AO2 T10831094
  • 180353Z AUTO 33005KT 7SM OVC004 M08/M09 A2974 RMK AO2 SLP099 T10831094

TAF KHIB
Valid from the 18 at 06:00 until the 19 at 06:00 UTC


180545Z 1806/1906 32005KT P6SM -SHSN OVC016
TEMPO 1806/1808 2SM -SHSN BR
FM181600 32007KT P6SM BKN022
FM182000 32006KT P6SM SCT022
KZMP FIR / North America



MET'MAP, your aeronautical weather chart ! - Copyright ORBIFLY December 2007 - Disclaimer

ORBIFLY MET'MAP TEAM :

Programming & Development : Alexandra Zaïnal
Concept & original design : Baudouin d'Aumeries
Assistance for programming : Marc-Olivier Méhu
Technical & hardware support : Manuel Goepfert

Contact : metmap@orbifly.com




SOURCES & CREDITS :

   NOAA       Earth
Advisory